Cox Field
KPRX : rendu visible

Aérodrome :











RETROUVEZ-NOUS SUR...

 
LOGIN :

S'inscrire | Disclaimer

   EN    FR    IT 

 









Légende :    VFR   VFR Marginal   IFR   IFR Intensif   IFR Très Intensif
Visi : 
Plafond : 
>= 8 km
>= 3000ft
5 à 8 km
1000 à 3000 ft
1500m à 5 km
500 à 1000 ft
800 à 1500m
200 à 500 ft
< 800m
< 200 ft
Symboles :   Orages  Brouillard  Fortes neiges  Fortes précipitations  Vent > 20 kt






- Altitude de l'aérodrome : 547 ft


KPRX - Cox Field

DERNIER METAR :
  • 230156Z AUTO 10012KT 8SM -RA OVC003 03/02 A3001 RMK AO2 UPE53RAB53 SLP179 P0001 T00280022

METARs EXPIRÉS :
  • 230056Z AUTO 11011KT 10SM UP OVC003 02/02 A3001 RMK AO2 RAE01B29E47UPB01E29B47 SLP179 P0001 T00220017 FZRANO
  • 222356Z AUTO 11010KT 5SM -RA BR OVC003 02/02 A3001 RMK AO2 UPE00RAB00 SLP179 P0002 60017 T00220017 10022 20011 56006 FZRANO

TAF N/A



MET'MAP, la Météo Aéronautique d'un coup d'oeil ! - Copyright ORBIFLY Décembre 2007 - Disclaimer

ORBIFLY MET'MAP TEAM :

Programmation & Développement : Alexandra Zaïnal
Sur une idée originale de : Baudouin d'Aumeries
Assistance à la programmation : Marc-Olivier Méhu
Soutien technique & logistique : Manuel Goepfert

Contact : metmap@orbifly.com




SOURCES & CREDITS :

   NOAA       Earth
Advisory